Latest Weather Observations for Woomera

IDS60801

Issued at 8:01 am CDT Tuesday 6 December 2022 (issued every 10 minutes, with the page automatically refreshed every 10 minutes)

About weather observations | Map of weather stations | Latest weather observations for SA | Other Formats
Station Details ID: 016001 Name: WOOMERA AERODROME Lat: -31.16 Lon: 136.81 Height: 166.6 m
Data from the previous 72 hours. | See also: Recent months at Woomera
Date/Time
CDT
Temp
°C
App
Temp
°C
Dew
Point
°C
Rel
Hum
%
Delta-T
°C
Wind Press
QNH
hPa
Press
MSL
hPa
Rain since
9am
mm
Dir  Spd
km/h
Gust
km/h
Spd
kts
Gust
kts
06/08:00am 19.9 16.2 10.0 53 5.4 ESE 20 26 11 14 1008.9 1008.0 0.0
06/07:30am 19.1 15.8 11.7 62 4.1 ESE 20 24 11 13 1008.4 1007.5 0.0
06/07:00am 18.1 16.2 11.7 66 3.5 SSE 13 20 7 11 1008.9 1008.0 0.0
06/06:30am 17.1 14.4 11.6 70 3.0 ESE 17 22 9 12 1008.5 1007.6 0.0
06/06:09am 17.4 14.1 11.7 69 3.1 ESE 20 28 11 15 1008.2 1007.3 0.0
06/06:00am 17.9 14.9 10.5 62 4.0 S 17 20 9 11 1009.3 1008.5 0.0
06/05:54am 17.9 14.4 10.3 61 4.1 SSE 19 24 10 13 1009.8 1009.0 0.0
06/05:30am 17.8 14.3 10.2 61 4.1 SE 19 22 10 12 1008.2 1007.3 0.0
06/05:00am 17.9 15.5 10.0 60 4.2 ESE 13 15 7 8 1008.2 1007.3 0.0
06/04:30am 18.1 15.7 10.0 59 4.3 ESE 13 15 7 8 1008.5 1007.6 0.0
06/04:00am 18.3 15.1 9.9 58 4.5 SE 17 19 9 10 1008.6 1007.7 0.0
06/03:30am 18.6 15.8 9.9 57 4.7 SE 15 17 8 9 1009.1 1008.3 0.0
06/03:00am 18.5 16.9 10.1 58 4.5 SE 9 13 5 7 1009.5 1008.7 0.0
06/02:30am 18.9 16.2 10.2 57 4.7 SE 15 20 8 11 1009.9 1009.1 0.0
06/02:00am 19.3 15.2 10.0 55 5.0 SE 22 28 12 15 1010.1 1009.3 0.0
06/01:30am 19.5 15.9 9.7 53 5.3 SE 19 24 10 13 1010.3 1009.5 0.0
06/01:00am 19.9 16.0 8.6 48 6.0 SE 19 24 10 13 1010.4 1009.6 0.0
06/12:30am 20.3 15.0 8.3 46 6.3 SE 26 35 14 19 1010.9 1010.1 0.0
06/12:00am 20.8 15.8 8.1 44 6.7 SE 24 33 13 18 1011.3 1010.4 0.0
 
Date/Time
CDT
Temp
°C
App
Temp
°C
Dew
Point
°C
Rel
Hum
%
Delta-T
°C
Wind Press
QNH
hPa
Press
MSL
hPa
Rain since
9am
mm
Dir  Spd
km/h
Gust
km/h
Spd
kts
Gust
kts
05/11:30pm 21.4 16.3 7.6 41 7.2 SE 24 33 13 18 1011.9 1011.0 0.0
05/11:00pm 21.6 17.6 6.7 38 7.7 SSE 17 22 9 12 1012.3 1011.4 0.0
05/10:30pm 21.8 17.4 7.6 40 7.4 SSE 20 26 11 14 1012.5 1011.6 0.0
05/10:00pm 22.1 18.1 6.7 37 7.9 SE 17 24 9 13 1012.5 1011.6 0.0
05/09:30pm 22.4 17.8 5.8 34 8.4 SSE 19 24 10 13 1012.3 1011.4 0.0
05/09:00pm 22.7 18.5 5.6 33 8.7 SSE 17 22 9 12 1012.5 1011.6 0.0
05/08:30pm 23.4 18.2 5.3 31 9.2 SSE 22 28 12 15 1012.5 1011.6 0.0
05/08:00pm 23.8 18.9 7.0 34 8.8 SE 22 28 12 15 1012.3 1011.4 0.0
05/07:30pm 24.5 19.9 8.0 35 8.8 SE 22 30 12 16 1011.8 1010.9 0.0
05/07:00pm 25.0 19.4 8.9 36 8.8 ESE 28 35 15 19 1011.2 1010.3 0.0
05/06:30pm 26.3 21.5 8.8 33 9.6 SE 24 33 13 18 1010.9 1010.1 0.0
05/06:00pm 27.2 23.1 8.6 31 10.2 SE 20 28 11 15 1010.6 1009.8 0.0
05/05:30pm 26.8 21.9 8.3 31 10.1 SSE 24 33 13 18 1011.3 1010.4 0.0
05/05:00pm 28.5 23.7 8.7 29 11.0 SSE 24 35 13 19 1011.6 1010.7 0.0
05/04:30pm 28.2 22.5 8.5 29 10.9 S 28 37 15 20 1012.1 1011.2 0.0
05/04:00pm 28.3 22.8 9.1 30 10.7 S 28 39 15 21 1012.3 1011.4 0.0
05/03:30pm 27.1 20.8 9.0 32 10.0 S 32 41 17 22 1012.8 1011.9 0.0
05/03:00pm 27.0 20.8 9.4 33 9.8 S 32 43 17 23 1013.2 1012.3 0.0
05/02:30pm 26.7 20.3 9.5 34 9.6 S 33 43 18 23 1013.8 1012.9 0.0
05/02:18pm 26.4 20.3 9.7 35 9.3 S 32 50 17 27 1014.0 1013.1 0.0
05/02:00pm 25.6 19.6 10.2 38 8.6 S 32 44 17 24 1014.4 1013.6 0.0
05/01:30pm 23.7 17.7 10.0 42 7.6 SSW 32 43 17 23 1014.9 1014.1 0.0
05/01:00pm 25.3 19.7 10.0 38 8.5 SSW 30 39 16 21 1015.0 1014.2 0.0
05/12:30pm 22.5 16.9 10.3 46 6.7 S 30 41 16 22 1014.8 1014.0 0.0
05/12:00pm 22.4 17.3 10.5 47 6.6 S 28 35 15 19 1014.6 1013.8 0.0
05/11:30am 23.3 18.4 11.4 47 6.7 S 28 39 15 21 1014.4 1013.6 0.0
05/11:00am 22.4 18.6 11.2 49 6.3 SSE 22 32 12 17 1013.6 1012.7 0.0
05/10:30am 22.4 17.6 11.8 51 6.0 S 28 39 15 21 1014.1 1013.2 0.0
05/10:00am 22.8 18.7 11.5 49 6.4 SSE 24 32 13 17 1013.5 1012.6 0.0
05/09:30am 22.0 18.8 12.0 53 5.7 SSE 20 28 11 15 1013.6 1012.7 0.0
05/09:00am 21.0 16.4 12.4 58 4.9 SE 28 35 15 19 1013.0 1012.1 0.0
05/08:30am 19.9 16.1 12.4 62 4.2 SSE 24 33 13 18 1012.7 1011.8 0.0
05/08:00am 19.4 15.7 12.7 65 3.8 SE 24 30 13 16 1012.6 1011.7 0.0
05/07:30am 18.7 14.8 12.0 65 3.7 SSE 24 32 13 17 1013.0 1012.1 0.0
05/07:00am 19.1 15.2 12.1 64 3.9 SSE 24 32 13 17 1012.7 1011.8 0.0
05/06:30am 19.5 14.9 12.3 63 4.1 SE 28 35 15 19 1012.3 1011.4 0.0
05/06:00am 20.2 17.5 11.7 58 4.8 SSE 17 24 9 13 1012.0 1011.1 0.0
05/05:30am 20.5 17.2 11.7 57 4.9 SE 20 28 11 15 1011.6 1010.7 0.0
05/05:00am 21.0 16.8 11.1 53 5.5 SE 24 30 13 16 1010.7 1009.9 0.0
05/04:30am 21.4 17.6 9.9 48 6.3 SE 20 28 11 15 1010.8 1010.0 0.0
05/04:00am 21.6 16.1 9.2 45 6.7 ESE 28 33 15 18 1010.9 1010.1 0.0
05/03:30am 21.7 14.3 8.2 42 7.1 SE 37 46 20 25 1010.7 1009.9 0.0
05/03:00am 22.2 16.3 7.6 39 7.7 SE 28 35 15 19 1012.1 1011.2 0.0
05/02:30am 22.6 16.2 6.8 36 8.2 SSE 30 41 16 22 1012.8 1011.9 0.0
05/02:00am 23.3 16.6 5.7 32 9.0 SSE 30 43 16 23 1012.7 1011.8 0.0
05/01:30am 23.4 16.9 6.7 34 8.7 S 30 44 16 24 1013.8 1012.9 0.0
05/01:00am 23.7 18.4 11.1 45 7.1 S 30 39 16 21 1014.4 1013.6 0.0
05/12:30am 24.7 18.8 10.6 41 7.9 S 32 41 17 22 1014.8 1014.0 0.0
05/12:15am 25.5 18.8 9.7 37 8.8 S 35 54 19 29 1014.4 1013.6 0.0
05/12:00am 26.3 19.2 9.6 35 9.3 S 37 46 20 25 1014.2 1013.3 0.0
 
Date/Time
CDT
Temp
°C
App
Temp
°C
Dew
Point
°C
Rel
Hum
%
Delta-T
°C
Wind Press
QNH
hPa
Press
MSL
hPa
Rain since
9am
mm
Dir  Spd
km/h
Gust
km/h
Spd
kts
Gust
kts
04/11:30pm 27.4 21.2 9.3 32 10.1 S 32 39 17 21 1013.5 1012.6 0.0
04/11:10pm 28.0 21.7 8.8 30 10.6 SSE 32 52 17 28 1013.2 1012.3 0.0
04/11:00pm 28.4 20.9 6.5 25 11.7 S 35 50 19 27 1013.1 1012.2 0.0
04/10:59pm 28.5 21.1 6.6 25 11.7 S 35 50 19 27 1013.0 1012.1 0.0
04/10:30pm 28.9 19.7 3.7 20 12.8 SSW 41 59 22 32 1012.4 1011.5 0.0
04/10:27pm 29.0 19.7 3.1 19 13.1 SSW 41 59 22 32 1012.3 1011.4 0.0
04/10:00pm 29.9 21.4 3.0 18 13.6 SSW 37 54 20 29 1011.8 1010.9 0.0
04/09:30pm 31.9 23.7 4.6 18 14.4 SSW 37 46 20 25 1011.2 1010.3 0.0
04/09:08pm 32.5 26.0 2.5 15 15.3 SSW 26 52 14 28 1010.5 1009.7 0.0
04/09:05pm 31.7 26.4 1.9 15 15.0 S 19 39 10 21 1010.5 1009.7 0.0
04/09:00pm 31.7 27.2 -0.1 13 15.5 S 13 17 7 9 1010.2 1009.4 0.0
04/08:30pm 33.3 29.1 -1.1 11 16.6 SSE 11 13 6 7 1009.8 1009.0 0.0
04/08:00pm 34.3 30.5 -0.4 11 17.1 S 9 11 5 6 1009.6 1008.8 0.0
04/07:30pm 36.5 32.6 -1.4 9 18.6 S 9 11 5 6 1009.3 1008.5 0.0
04/07:00pm 37.1 32.9 -1.0 9 18.9 SSW 11 17 6 9 1009.1 1008.3 0.0
04/06:30pm 37.3 31.4 -0.9 9 19.0 SSW 20 30 11 16 1008.9 1008.0 0.0
04/06:00pm 37.4 32.8 -0.8 9 19.1 S 13 20 7 11 1008.8 1007.9 0.0
04/05:30pm 37.8 33.3 -0.5 9 19.3 SSW 13 24 7 13 1008.8 1007.9 0.0
04/05:00pm 37.7 31.1 -0.6 9 19.2 SSW 24 37 13 20 1008.9 1008.0 0.0
04/04:30pm 37.8 33.4 -2.1 8 19.6 SW 11 19 6 10 1009.0 1008.2 0.0
04/04:00pm 37.5 32.2 -0.7 9 19.1 W 17 22 9 12 1009.3 1008.5 0.0
04/03:30pm 37.3 33.1 -0.9 9 19.0 SSW 11 22 6 12 1009.6 1008.8 0.0
04/03:00pm 37.3 33.1 -0.9 9 19.0 SW 11 24 6 13 1010.0 1009.2 0.0
04/02:30pm 36.3 32.8 -1.6 9 18.6 N 7 13 4 7 1010.4 1009.6 0.0
04/02:00pm 36.6 32.5 0.1 10 18.4 N 11 20 6 11 1010.9 1010.1 0.0
04/01:30pm 36.1 31.6 -0.3 10 18.2 SW 13 19 7 10 1011.5 1010.6 0.0
04/01:00pm 35.8 32.2 0.8 11 17.7 SW 9 15 5 8 1011.9 1011.0 0.0
04/12:30pm 35.6 31.0 1.8 12 17.4 NNE 15 28 8 15 1012.2 1011.3 0.0
04/12:00pm 35.2 31.2 2.6 13 16.9 NNE 13 26 7 14 1012.5 1011.6 0.0
04/11:30am 35.1 29.1 3.6 14 16.6 NNW 24 35 13 19 1012.8 1011.9 0.0
04/11:00am 33.8 28.0 4.5 16 15.6 N 24 33 13 18 1012.8 1011.9 0.0
04/10:30am 33.0 26.9 4.7 17 15.0 N 26 37 14 20 1013.0 1012.1 0.0
04/10:00am 31.9 25.9 5.4 19 14.1 N 26 35 14 19 1013.2 1012.3 0.0
04/09:30am 30.7 24.7 5.2 20 13.5 N 26 35 14 19 1013.2 1012.3 0.0
04/09:00am 29.2 22.8 5.3 22 12.5 N 28 33 15 18 1013.1 1012.2 0.0
04/08:30am 27.9 22.6 4.9 23 11.9 NNE 22 30 12 16 1012.9 1012.0 0.0
04/08:00am 26.0 21.2 4.5 25 10.9 NNE 19 22 10 12 1012.6 1011.7 0.0
04/07:30am 24.2 20.4 4.0 27 10.0 NNE 13 17 7 9 1012.3 1011.4 0.0
04/07:00am 23.1 18.4 3.1 27 9.7 NNE 17 20 9 11 1011.8 1010.9 0.0
04/06:30am 22.4 16.9 2.0 26 9.6 NNE 20 24 11 13 1011.3 1010.4 0.0
04/06:00am 23.1 17.8 2.0 25 10.0 NNE 19 24 10 13 1010.9 1010.1 0.0
04/05:30am 21.0 15.9 0.8 26 9.2 NE 17 19 9 10 1010.6 1009.8 0.0
04/05:00am 22.2 16.7 0.7 24 9.9 NE 19 20 10 11 1010.4 1009.6 0.0
04/04:30am 21.6 16.9 0.8 25 9.6 NE 15 17 8 9 1010.3 1009.5 0.0
04/04:00am 21.6 16.5 0.8 25 9.5 NE 17 20 9 11 1010.4 1009.6 0.0
04/03:30am 21.6 16.9 0.8 25 9.6 NE 15 17 8 9 1010.6 1009.8 0.0
04/03:00am 22.6 17.7 -0.2 22 10.4 ENE 15 22 8 12 1010.7 1009.9 0.0
04/02:30am 24.1 21.3 2.9 25 10.3 N 7 13 4 7 1010.7 1009.9 0.0
04/02:00am 23.6 20.3 -1.3 19 11.1 NW 6 7 3 4 1010.8 1010.0 0.0
04/01:30am 25.3 21.4 -1.5 17 12.1 NNE 9 11 5 6 1010.9 1010.1 0.0
04/01:00am 25.2 21.4 -0.8 18 11.9 NNE 9 11 5 6 1011.3 1010.4 0.0
04/12:30am 25.5 21.6 -1.3 17 12.2 N 9 11 5 6 1011.6 1010.7 0.0
04/12:00am 25.7 22.4 -1.2 17 12.3 NNE 6 7 3 4 1011.9 1011.0 0.0
 
Date/Time
CDT
Temp
°C
App
Temp
°C
Dew
Point
°C
Rel
Hum
%
Delta-T
°C
Wind Press
QNH
hPa
Press
MSL
hPa
Rain since
9am
mm
Dir  Spd
km/h
Gust
km/h
Spd
kts
Gust
kts
03/11:30pm 26.8 22.7 -2.9 14 13.3 E 9 11 5 6 1012.0 1011.1 0.0
03/11:00pm 27.1 23.2 -1.7 15 13.2 E 9 11 5 6 1012.0 1011.1 0.0
03/10:30pm 27.5 23.4 -0.5 16 13.1 E 11 13 6 7 1011.8 1010.9 0.0
03/10:00pm 27.9 23.7 -1.1 15 13.5 E 11 13 6 7 1011.6 1010.7 0.0
03/09:30pm 27.6 22.5 -2.3 14 13.6 ENE 15 15 8 8 1011.3 1010.4 0.0
03/09:00pm 29.5 24.5 -4.0 11 15.0 E 13 15 7 8 1011.2 1010.3 0.0
03/08:30pm 30.6 25.6 -4.4 10 15.7 ESE 13 17 7 9 1010.8 1010.0 0.0
03/08:00pm 32.5 27.5 -4.4 9 16.8 ESE 13 22 7 12 1010.5 1009.7 0.0
03/07:30pm 33.8 29.3 -3.5 9 17.4 ENE 11 15 6 8 1010.2 1009.4 0.0
03/07:00pm 34.4 31.3 -3.0 9 17.6 ENE 4 9 2 5 1009.9 1009.1 0.0
03/06:30pm 34.8 30.4 -2.7 9 17.9 ENE 11 19 6 10 1009.6 1008.8 0.0
03/06:00pm 34.8 30.2 -4.3 8 18.1 SE 11 17 6 9 1009.6 1008.8 0.0
03/05:30pm 35.1 30.3 -2.5 9 18.0 E 13 17 7 9 1009.7 1008.9 0.0
03/05:00pm 35.2 30.4 -2.4 9 18.0 NW 13 32 7 17 1009.9 1009.1 0.0
03/04:30pm 34.6 29.6 -4.4 8 18.0 SSE 13 19 7 10 1010.1 1009.3 0.0
03/04:00pm 34.7 29.3 -4.4 8 18.1 ENE 15 26 8 14 1010.2 1009.4 0.0
03/03:30pm 35.7 31.7 -2.0 9 18.3 S 9 19 5 10 1010.6 1009.8 0.0
03/03:00pm 35.3 30.5 -2.3 9 18.1 ESE 13 22 7 12 1010.8 1010.0 0.0
03/02:30pm 34.5 30.0 -2.9 9 17.7 NNE 11 15 6 8 1011.3 1010.4 0.0
03/02:00pm 34.3 29.2 -1.7 10 17.3 NE 15 24 8 13 1011.6 1010.7 0.0
03/01:30pm 33.6 29.8 -0.9 11 16.8 E 9 17 5 9 1012.0 1011.1 0.0
03/01:00pm 32.6 27.2 -1.7 11 16.3 NNE 17 28 9 15 1012.3 1011.4 0.0
03/12:30pm 32.9 28.4 -0.2 12 16.2 NNW 13 26 7 14 1012.7 1011.8 0.0
03/12:00pm 32.2 27.8 0.3 13 15.7 NW 13 26 7 14 1012.9 1012.0 0.0
03/11:30am 32.6 27.7 1.7 14 15.6 NNE 17 26 9 14 1013.2 1012.3 0.0
03/11:00am 31.3 26.0 1.6 15 14.8 NNE 19 30 10 16 1013.4 1012.5 0.0
03/10:30am 31.8 26.1 2.9 16 14.8 NNE 22 30 12 16 1013.4 1012.5 0.0
03/10:00am 30.3 25.2 4.1 19 13.5 ENE 20 28 11 15 1013.5 1012.6 0.0
03/09:30am 29.0 24.0 4.5 21 12.7 ENE 20 28 11 15 1013.5 1012.6 0.0
03/09:00am 27.6 22.5 4.0 22 12.0 ENE 20 30 11 16 1013.6 1012.7 0.0
03/08:30am 26.1 21.6 4.0 24 11.1 E 17 22 9 12 1013.3 1012.4 0.0

Other formats

Comma delimited format used in spreadsheet applications
http://www.bom.gov.au/fwo/IDS60801/IDS60801.94659.axf

JavaScript Object Notation format (JSON) in row-major order
http://www.bom.gov.au/fwo/IDS60801/IDS60801.94659.json

Data quality

Most of these data are generated automatically and are frequently updated. Quality checks on data are not normally performed. It is possible for incorrect values to appear. Refer to information at About Latest Weather Observations and please check the disclaimer before using these data.